createdAt,value
2018-10-07T00:01:29.706Z,33.20
2018-10-07T00:03:57.616Z,40.50
2018-10-07T00:06:25.554Z,38.90
2018-10-07T00:08:53.432Z,31.43
2018-10-07T00:11:21.417Z,33.70
2018-10-07T00:13:49.494Z,34.73
2018-10-07T00:16:17.378Z,36.87
2018-10-07T00:18:45.243Z,31.20
2018-10-07T00:21:13.077Z,33.30
2018-10-07T00:23:40.884Z,35.43
2018-10-07T00:26:09.158Z,29.10
2018-10-07T00:28:37.000Z,37.43
2018-10-07T00:31:04.876Z,33.73
2018-10-07T00:33:32.728Z,29.83
2018-10-07T00:36:00.572Z,31.57
2018-10-07T00:38:28.423Z,29.80
2018-10-07T00:40:56.288Z,28.60
2018-10-07T00:43:24.144Z,28.80
2018-10-07T00:45:52.175Z,31.60
2018-10-07T00:48:20.012Z,33.00
2018-10-07T00:50:47.898Z,35.53
2018-10-07T00:53:15.781Z,34.73
2018-10-07T00:55:43.591Z,30.80
2018-10-07T00:58:11.393Z,35.00
2018-10-07T01:00:39.227Z,41.57
2018-10-07T01:03:07.099Z,34.37
2018-10-07T01:05:34.930Z,31.00
2018-10-07T01:08:02.757Z,33.13
2018-10-07T01:10:30.568Z,33.53
2018-10-07T01:12:58.464Z,30.50
2018-10-07T01:15:26.341Z,33.33
2018-10-07T01:17:54.201Z,40.63
2018-10-07T01:20:22.415Z,35.83
2018-10-07T01:22:50.376Z,33.17
2018-10-07T01:25:18.233Z,40.23
2018-10-07T01:27:46.096Z,33.40
2018-10-07T01:30:13.931Z,29.33
2018-10-07T01:32:41.797Z,28.83
2018-10-07T01:35:09.673Z,35.93
2018-10-07T01:37:37.512Z,35.20
2018-10-07T01:40:05.439Z,34.17
2018-10-07T01:42:33.280Z,28.77
2018-10-07T01:45:01.141Z,42.13
2018-10-07T01:47:29.016Z,30.20
2018-10-07T01:49:56.846Z,35.77
2018-10-07T01:52:24.688Z,34.97
2018-10-07T01:54:52.504Z,27.90
2018-10-07T01:57:20.620Z,35.90
2018-10-07T01:59:48.456Z,33.73
2018-10-07T02:02:16.299Z,34.10
2018-10-07T02:04:44.172Z,29.80
2018-10-07T02:07:12.043Z,29.27
2018-10-07T02:09:39.858Z,29.77
2018-10-07T02:12:08.176Z,38.83
2018-10-07T02:14:36.023Z,29.13
2018-10-07T02:17:03.886Z,33.37
2018-10-07T02:19:31.728Z,34.93
2018-10-07T02:21:59.569Z,34.90
2018-10-07T02:24:27.409Z,35.90
2018-10-07T02:26:55.256Z,35.63
2018-10-07T02:29:23.108Z,33.77
2018-10-07T02:31:50.986Z,32.20
2018-10-07T02:34:18.811Z,28.30
2018-10-07T02:36:46.643Z,29.63
2018-10-07T02:39:14.488Z,29.63
2018-10-07T02:41:42.344Z,29.87
2018-10-07T02:44:10.176Z,30.30
2018-10-07T02:46:38.276Z,32.93
2018-10-07T02:49:06.554Z,31.77
2018-10-07T02:51:34.449Z,30.50
2018-10-07T02:54:02.430Z,32.20
2018-10-07T02:56:30.377Z,30.10
2018-10-07T02:58:58.565Z,31.23
2018-10-07T03:01:26.515Z,30.57
2018-10-07T03:03:54.365Z,29.90
2018-10-07T03:06:22.279Z,40.13
2018-10-07T03:08:50.497Z,31.20
2018-10-07T03:11:18.370Z,32.77
2018-10-07T03:13:46.240Z,79.63
2018-10-07T03:16:14.084Z,50.40
2018-10-07T03:18:41.903Z,48.10
2018-10-07T03:21:09.769Z,50.90
2018-10-07T03:23:37.592Z,40.70
2018-10-07T03:26:05.974Z,44.53
2018-10-07T03:28:33.856Z,37.20
2018-10-07T03:31:01.678Z,36.53
2018-10-07T03:33:29.553Z,35.40
2018-10-07T03:35:57.420Z,38.97
2018-10-07T03:38:25.249Z,37.70
2018-10-07T03:40:53.063Z,38.27
2018-10-07T03:43:20.901Z,34.67
2018-10-07T03:45:48.991Z,32.33
2018-10-07T03:48:16.936Z,33.23
2018-10-07T03:50:44.769Z,37.60
2018-10-07T03:53:12.595Z,34.27
2018-10-07T03:55:40.433Z,36.07
2018-10-07T03:58:08.551Z,32.17
2018-10-07T04:00:36.407Z,32.97
2018-10-07T04:03:04.275Z,31.60
2018-10-07T04:05:32.152Z,33.10
2018-10-07T04:08:00.006Z,41.50
2018-10-07T04:10:27.871Z,39.17
2018-10-07T04:12:55.709Z,43.40
2018-10-07T04:15:23.546Z,38.80
2018-10-07T04:17:51.414Z,40.37
2018-10-07T04:20:19.255Z,41.20
2018-10-07T04:22:47.842Z,38.50
2018-10-07T04:25:15.732Z,32.80
2018-10-07T04:27:43.567Z,32.30
2018-10-07T04:30:11.744Z,32.50
2018-10-07T04:32:39.560Z,36.60
2018-10-07T04:35:07.448Z,34.73
2018-10-07T04:37:35.299Z,36.87
2018-10-07T04:40:04.124Z,39.33
2018-10-07T04:42:31.955Z,36.17
2018-10-07T04:44:59.830Z,34.07
2018-10-07T04:47:27.684Z,36.07
2018-10-07T04:49:55.612Z,33.83
2018-10-07T04:52:23.436Z,32.90
2018-10-07T04:54:51.289Z,37.53
2018-10-07T04:57:19.111Z,34.13
2018-10-07T04:59:46.930Z,34.87
2018-10-07T05:02:14.740Z,39.97
2018-10-07T05:04:42.590Z,35.23
2018-10-07T05:07:10.626Z,36.67
2018-10-07T05:09:38.481Z,36.60
2018-10-07T05:12:08.285Z,33.33
2018-10-07T05:14:36.165Z,31.40
2018-10-07T05:17:04.197Z,33.63
2018-10-07T05:19:32.074Z,30.23
2018-10-07T05:22:00.228Z,33.93
2018-10-07T05:24:28.152Z,34.40
2018-10-07T05:26:56.310Z,35.80
2018-10-07T05:29:24.199Z,34.40
2018-10-07T05:31:52.047Z,44.50
2018-10-07T05:34:19.927Z,35.17
2018-10-07T05:36:47.786Z,34.37
2018-10-07T05:39:15.651Z,37.73
2018-10-07T05:41:43.513Z,40.63
2018-10-07T05:44:11.413Z,38.23
2018-10-07T05:46:39.221Z,36.30
2018-10-07T05:49:07.096Z,48.90
2018-10-07T05:51:34.962Z,42.20
2018-10-07T05:54:02.831Z,46.00
2018-10-07T05:56:30.696Z,38.20
2018-10-07T05:58:58.718Z,48.50
2018-10-07T06:01:33.843Z,37.53
2018-10-07T06:04:28.777Z,37.97
2018-10-07T06:06:59.491Z,40.00
2018-10-07T06:09:29.029Z,36.77
2018-10-07T06:11:57.271Z,42.40
2018-10-07T06:14:36.930Z,50.80
2018-10-07T06:17:04.794Z,37.80
2018-10-07T06:19:32.943Z,44.27
2018-10-07T06:22:02.687Z,41.90
2018-10-07T06:24:30.621Z,41.73
2018-10-07T06:26:58.773Z,42.07
2018-10-07T06:29:26.973Z,40.20
2018-10-07T06:31:55.153Z,35.80
2018-10-07T06:34:23.807Z,42.13
2018-10-07T06:36:52.716Z,55.90
2018-10-07T06:39:20.829Z,38.20
2018-10-07T06:41:49.377Z,36.70
2018-10-07T06:44:17.548Z,48.20
2018-10-07T06:46:45.739Z,41.43
2018-10-07T06:49:13.589Z,36.37
2018-10-07T06:51:41.465Z,43.03
2018-10-07T06:54:09.734Z,41.03
2018-10-07T06:56:37.598Z,43.57
2018-10-07T06:59:05.801Z,42.70
2018-10-07T07:01:33.646Z,52.87
2018-10-07T07:04:01.522Z,39.23
2018-10-07T07:06:29.402Z,42.23
2018-10-07T07:08:57.260Z,39.93
2018-10-07T07:11:25.099Z,41.73
2018-10-07T07:13:53.304Z,38.70
2018-10-07T07:16:21.184Z,42.27
2018-10-07T07:18:49.347Z,38.90
2018-10-07T07:21:17.250Z,37.63
2018-10-07T07:23:45.142Z,42.00
2018-10-07T07:26:13.038Z,41.87
2018-10-07T07:28:40.926Z,36.83
2018-10-07T07:31:09.101Z,42.23
2018-10-07T07:33:37.023Z,39.63
2018-10-07T07:36:04.977Z,40.90
2018-10-07T07:38:32.808Z,40.77
2018-10-07T07:41:00.669Z,51.10
2018-10-07T07:43:28.593Z,43.23
2018-10-07T07:45:56.452Z,40.60
2018-10-07T07:48:24.476Z,39.77
2018-10-07T07:50:52.339Z,41.10
2018-10-07T07:53:20.187Z,37.97
2018-10-07T07:55:48.032Z,46.47
2018-10-07T07:58:16.065Z,40.33
2018-10-07T08:00:44.801Z,42.77
2018-10-07T08:03:12.624Z,39.53
2018-10-07T08:05:40.452Z,46.00
2018-10-07T08:08:08.331Z,46.93
2018-10-07T08:10:36.134Z,41.33
2018-10-07T08:13:03.978Z,42.23
2018-10-07T08:15:31.835Z,36.73
2018-10-07T08:17:59.795Z,37.03
2018-10-07T08:20:27.743Z,43.10
2018-10-07T08:22:55.575Z,39.97
2018-10-07T08:25:23.412Z,37.57
2018-10-07T08:27:51.320Z,33.80
2018-10-07T08:30:19.176Z,38.80
2018-10-07T08:32:53.133Z,31.73
2018-10-07T08:35:21.094Z,43.13
2018-10-07T08:37:52.020Z,34.13
2018-10-07T08:40:19.892Z,29.90
2018-10-07T08:42:47.778Z,37.20
2018-10-07T08:45:15.622Z,33.47
2018-10-07T08:47:43.504Z,38.53
2018-10-07T08:50:11.365Z,29.67
2018-10-07T08:52:39.223Z,33.60
2018-10-07T08:55:07.069Z,31.57
2018-10-07T08:57:35.556Z,29.73
2018-10-07T09:00:03.953Z,27.93
2018-10-07T09:02:31.845Z,25.97
2018-10-07T09:04:59.705Z,28.63
2018-10-07T09:07:27.598Z,31.40
2018-10-07T09:09:55.435Z,31.67
2018-10-07T09:12:23.271Z,29.80
2018-10-07T09:14:51.118Z,24.93
2018-10-07T09:17:18.973Z,25.53
2018-10-07T09:19:46.811Z,27.40
2018-10-07T09:22:14.624Z,24.37
2018-10-07T09:24:42.475Z,29.70
2018-10-07T09:27:10.417Z,23.07
2018-10-07T09:29:38.889Z,26.83
2018-10-07T09:32:06.784Z,23.57
2018-10-07T09:34:34.659Z,23.53
2018-10-07T09:37:02.593Z,26.00
2018-10-07T09:39:30.521Z,24.47
2018-10-07T09:41:58.832Z,20.23
2018-10-07T09:44:26.755Z,30.10
2018-10-07T09:46:55.041Z,23.47
2018-10-07T09:49:22.956Z,14.93
2018-10-07T09:51:50.777Z,14.23
2018-10-07T09:54:18.635Z,11.97
2018-10-07T09:56:47.343Z,10.30
2018-10-07T09:59:16.168Z,9.30
2018-10-07T10:01:44.441Z,12.07
2018-10-07T10:04:12.324Z,13.20
2018-10-07T10:06:40.708Z,9.50
2018-10-07T10:09:09.758Z,13.87
2018-10-07T10:11:37.636Z,10.37
2018-10-07T10:14:05.631Z,13.37
2018-10-07T10:17:37.022Z,11.03
2018-10-07T10:20:07.409Z,9.30
2018-10-07T10:22:58.023Z,9.20
2018-10-07T10:25:31.617Z,10.70
2018-10-07T10:28:13.085Z,15.20
2018-10-07T10:30:49.757Z,13.10
2018-10-07T10:33:27.867Z,9.93
2018-10-07T10:36:10.431Z,12.10
2018-10-07T10:38:43.380Z,9.50
2018-10-07T10:41:21.094Z,8.97
2018-10-07T10:43:56.375Z,14.83
2018-10-07T10:47:01.935Z,17.83
2018-10-07T10:49:38.903Z,18.00
2018-10-07T10:52:16.404Z,10.23
2018-10-07T10:56:55.671Z,23.50
2018-10-07T10:59:32.912Z,13.80
2018-10-07T11:04:14.041Z,14.03
2018-10-07T11:06:52.876Z,25.17
2018-10-07T11:11:51.583Z,8.63
2018-10-07T11:14:58.522Z,13.10
2018-10-07T11:18:01.956Z,18.67
2018-10-07T11:20:45.894Z,15.13
2018-10-07T11:23:24.923Z,10.50
2018-10-07T11:26:03.176Z,11.17
2018-10-07T11:28:51.692Z,14.63
2018-10-07T11:33:34.920Z,12.20
2018-10-07T11:37:17.844Z,17.13
2018-10-07T11:40:24.317Z,13.43
2018-10-07T11:43:16.715Z,13.10
2018-10-07T11:45:54.734Z,14.90
2018-10-07T11:49:41.141Z,11.30
2018-10-07T11:52:50.963Z,16.87
2018-10-07T11:55:18.867Z,16.83
2018-10-07T11:57:46.740Z,10.90
2018-10-07T12:00:14.689Z,18.93
2018-10-07T12:02:43.584Z,26.20
2018-10-07T12:05:11.365Z,14.47
2018-10-07T12:07:45.874Z,24.83
2018-10-07T12:10:13.832Z,28.43
2018-10-07T12:12:41.658Z,23.33
2018-10-07T12:15:09.544Z,15.20
2018-10-07T12:17:37.427Z,15.93
2018-10-07T12:20:05.567Z,19.97
2018-10-07T12:22:33.410Z,19.77
2018-10-07T12:25:01.257Z,18.80
2018-10-07T12:27:29.125Z,15.03
2018-10-07T12:29:56.980Z,20.03
2018-10-07T12:32:24.863Z,16.33
2018-10-07T12:34:52.976Z,14.30
2018-10-07T12:37:20.858Z,10.23
2018-10-07T12:39:49.009Z,14.80
2018-10-07T12:42:16.835Z,15.50
2018-10-07T12:44:44.948Z,14.83
2018-10-07T12:47:12.831Z,15.13
2018-10-07T12:49:40.653Z,19.67
2018-10-07T12:52:08.489Z,16.50
2018-10-07T12:54:36.552Z,15.07
2018-10-07T12:57:04.303Z,16.80
2018-10-07T12:59:32.131Z,17.10
2018-10-07T13:01:59.959Z,14.47
2018-10-07T13:04:27.786Z,17.57
2018-10-07T13:06:55.656Z,15.10
2018-10-07T13:09:23.613Z,14.13
2018-10-07T13:11:51.533Z,11.73
2018-10-07T13:14:19.455Z,16.43
2018-10-07T13:16:47.379Z,12.73
2018-10-07T13:19:15.396Z,13.10
2018-10-07T13:21:43.237Z,17.20
2018-10-07T13:24:12.158Z,15.83
2018-10-07T13:26:40.342Z,17.33
2018-10-07T13:29:08.225Z,13.07
2018-10-07T13:31:36.089Z,11.40
2018-10-07T13:34:03.958Z,12.17
2018-10-07T13:36:32.106Z,17.20
2018-10-07T13:38:59.956Z,15.03
2018-10-07T13:41:27.821Z,14.63
2018-10-07T13:43:55.677Z,13.70
2018-10-07T13:46:23.552Z,13.10
2018-10-07T13:48:51.394Z,14.90
2018-10-07T13:51:19.622Z,14.17
2018-10-07T13:53:47.487Z,22.00
2018-10-07T13:56:15.328Z,23.53
2018-10-07T13:58:43.169Z,18.20
2018-10-07T14:01:11.292Z,18.03
2018-10-07T14:03:39.166Z,17.53
2018-10-07T14:06:07.149Z,13.13
2018-10-07T14:08:34.996Z,17.07
2018-10-07T14:11:03.175Z,15.43
2018-10-07T14:13:31.015Z,25.80
2018-10-07T14:15:58.823Z,14.50
2018-10-07T14:18:26.643Z,10.13
2018-10-07T14:20:54.737Z,12.13
2018-10-07T14:23:22.556Z,17.13
2018-10-07T14:25:50.383Z,9.67
2018-10-07T14:28:18.239Z,14.60
2018-10-07T14:30:46.051Z,18.43
2018-10-07T14:33:13.869Z,16.90
2018-10-07T14:35:41.745Z,17.57
2018-10-07T14:38:09.628Z,11.93
2018-10-07T14:40:37.442Z,17.00
2018-10-07T14:43:06.048Z,14.07
2018-10-07T14:45:33.890Z,15.70
2018-10-07T14:48:02.902Z,13.00
2018-10-07T14:50:30.734Z,14.07
2018-10-07T14:52:58.590Z,10.27
2018-10-07T14:55:26.696Z,13.93
2018-10-07T14:57:54.540Z,8.83
2018-10-07T15:00:22.395Z,12.63
2018-10-07T15:02:50.223Z,14.23
2018-10-07T15:05:18.050Z,16.40
2018-10-07T15:07:45.869Z,10.77
2018-10-07T15:10:13.680Z,10.17
2018-10-07T15:12:41.525Z,10.70
2018-10-07T15:15:09.329Z,11.30
2018-10-07T15:17:37.154Z,11.30
2018-10-07T15:20:05.689Z,10.30
2018-10-07T15:22:33.515Z,20.27
2018-10-07T15:25:01.344Z,18.63
2018-10-07T15:27:29.225Z,10.80
2018-10-07T15:29:57.133Z,14.53
2018-10-07T15:32:25.230Z,10.07
2018-10-07T15:34:53.193Z,14.43
2018-10-07T15:37:21.481Z,16.93
2018-10-07T15:39:49.370Z,13.80
2018-10-07T15:42:17.504Z,11.57
2018-10-07T15:44:45.364Z,17.50
2018-10-07T15:47:13.540Z,15.93
2018-10-07T15:49:41.392Z,14.70
2018-10-07T15:52:10.175Z,12.17
2018-10-07T15:54:38.097Z,25.03
2018-10-07T15:57:06.080Z,13.20
2018-10-07T15:59:33.924Z,14.00
2018-10-07T16:02:01.926Z,11.80
2018-10-07T16:04:29.742Z,16.90
2018-10-07T16:06:57.989Z,12.60
2018-10-07T16:09:25.846Z,27.27
2018-10-07T16:11:53.714Z,25.40
2018-10-07T16:14:21.556Z,19.60
2018-10-07T16:16:49.687Z,22.00
2018-10-07T16:19:17.561Z,19.13
2018-10-07T16:21:45.427Z,17.70
2018-10-07T16:24:13.277Z,15.03
2018-10-07T16:26:41.217Z,14.87
2018-10-07T16:29:08.997Z,14.90
2018-10-07T16:31:36.876Z,12.83
2018-10-07T16:34:04.764Z,16.90
2018-10-07T16:36:33.598Z,14.20
2018-10-07T16:39:01.494Z,14.80
2018-10-07T16:41:29.332Z,16.27
2018-10-07T16:43:57.472Z,25.70
2018-10-07T16:46:25.293Z,39.47
2018-10-07T16:48:53.075Z,66.03
2018-10-07T16:51:20.943Z,150.47
2018-10-07T16:53:49.465Z,158.53
2018-10-07T16:56:17.313Z,113.30
2018-10-07T16:58:45.145Z,100.23
2018-10-07T17:01:13.266Z,76.77
2018-10-07T17:03:41.540Z,76.40
2018-10-07T17:06:10.122Z,46.03
2018-10-07T17:08:38.001Z,38.27
2018-10-07T17:11:06.827Z,50.93
2018-10-07T17:13:34.981Z,42.60
2018-10-07T17:16:02.806Z,30.53
2018-10-07T17:18:30.671Z,28.57
2018-10-07T17:20:58.565Z,45.50
2018-10-07T17:23:26.612Z,91.50
2018-10-07T17:25:55.353Z,49.53
2018-10-07T17:28:23.180Z,32.13
2018-10-07T17:30:51.038Z,22.53
2018-10-07T17:33:18.888Z,20.60
2018-10-07T17:35:47.418Z,21.70
2018-10-07T17:38:15.323Z,31.70
2018-10-07T17:40:43.164Z,24.50
2018-10-07T17:43:11.015Z,28.60
2018-10-07T17:45:38.883Z,24.23
2018-10-07T17:48:06.794Z,39.40
2018-10-07T17:50:34.594Z,23.87
2018-10-07T17:53:02.401Z,23.33
2018-10-07T17:55:30.209Z,40.03
2018-10-07T17:57:58.032Z,32.30
2018-10-07T18:00:25.945Z,26.13
2018-10-07T18:02:53.919Z,38.33
2018-10-07T18:05:22.041Z,27.90
2018-10-07T18:07:49.901Z,23.73
2018-10-07T18:10:17.756Z,19.90
2018-10-07T18:12:46.768Z,21.57
2018-10-07T18:15:14.898Z,19.80
2018-10-07T18:17:42.737Z,20.20
2018-10-07T18:20:10.577Z,18.83
2018-10-07T18:22:38.420Z,47.27
2018-10-07T18:25:06.320Z,57.80
2018-10-07T18:27:34.285Z,83.30
2018-10-07T18:30:02.186Z,58.90
2018-10-07T18:32:30.116Z,21.50
2018-10-07T18:34:58.240Z,27.13
2018-10-07T18:37:26.081Z,22.13
2018-10-07T18:39:53.931Z,51.27
2018-10-07T18:42:21.782Z,30.93
2018-10-07T18:44:49.576Z,22.77
2018-10-07T18:47:17.384Z,16.20
2018-10-07T18:49:45.228Z,16.63
2018-10-07T18:52:13.108Z,14.40
2018-10-07T18:54:41.049Z,16.57
2018-10-07T18:57:09.233Z,18.93
2018-10-07T18:59:37.076Z,33.80
2018-10-07T19:02:05.002Z,20.40
2018-10-07T19:04:33.911Z,18.33
2018-10-07T19:07:01.764Z,23.67
2018-10-07T19:09:30.196Z,42.83
2018-10-07T19:11:58.072Z,55.33
2018-10-07T19:14:26.445Z,48.97
2018-10-07T19:16:55.153Z,40.70
2018-10-07T19:19:23.867Z,40.03
2018-10-07T19:21:51.752Z,46.43
2018-10-07T19:24:19.576Z,48.73
2018-10-07T19:26:48.270Z,58.27
2018-10-07T19:29:16.083Z,53.33
2018-10-07T19:31:43.914Z,76.17
2018-10-07T19:34:12.058Z,60.80
2018-10-07T19:36:40.658Z,52.93
2018-10-07T19:39:09.525Z,40.97
2018-10-07T19:41:38.219Z,22.67
2018-10-07T19:44:06.688Z,29.03
2018-10-07T19:46:34.980Z,38.57
2018-10-07T19:49:02.811Z,25.30
2018-10-07T19:51:30.673Z,29.17
2018-10-07T19:53:58.534Z,32.80
2018-10-07T19:56:26.356Z,31.63
2018-10-07T19:58:54.171Z,30.67
2018-10-07T20:01:22.623Z,31.67
2018-10-07T20:03:51.381Z,30.87
2018-10-07T20:06:19.263Z,25.20
2018-10-07T20:08:47.132Z,24.10
2018-10-07T20:11:14.995Z,34.23
2018-10-07T20:13:42.854Z,26.90
2018-10-07T20:16:10.908Z,30.37
2018-10-07T20:18:38.988Z,23.77
2018-10-07T20:21:06.824Z,34.73
2018-10-07T20:23:34.783Z,25.47
2018-10-07T20:26:03.327Z,28.37
2018-10-07T20:28:31.156Z,26.67
2018-10-07T20:30:58.985Z,28.07
2018-10-07T20:33:27.464Z,33.20
2018-10-07T20:35:55.604Z,21.33
2018-10-07T20:38:23.471Z,28.30
2018-10-07T20:40:51.594Z,25.93
2018-10-07T20:43:19.516Z,32.97
2018-10-07T20:45:47.682Z,28.50
2018-10-07T20:48:15.629Z,29.90
2018-10-07T20:50:43.648Z,28.83
2018-10-07T20:53:11.496Z,27.50
2018-10-07T20:55:39.351Z,26.00
2018-10-07T20:58:07.952Z,24.40
2018-10-07T21:00:36.121Z,21.40
2018-10-07T21:03:04.013Z,26.87
2018-10-07T21:05:31.877Z,27.67
2018-10-07T21:07:59.734Z,28.13
2018-10-07T21:10:27.607Z,31.57
2018-10-07T21:12:55.754Z,33.20
2018-10-07T21:15:23.600Z,32.23
2018-10-07T21:17:51.439Z,23.50
2018-10-07T21:20:19.315Z,33.83
2018-10-07T21:22:47.228Z,32.67
2018-10-07T21:25:15.088Z,31.80
2018-10-07T21:27:42.971Z,27.03
2018-10-07T21:30:10.847Z,35.10
2018-10-07T21:32:38.697Z,29.10
2018-10-07T21:35:06.583Z,30.10
2018-10-07T21:37:34.514Z,30.07
2018-10-07T21:40:02.317Z,32.43
2018-10-07T21:42:30.131Z,28.43
2018-10-07T21:44:58.337Z,26.37
2018-10-07T21:47:26.233Z,27.90
2018-10-07T21:49:54.092Z,32.80
2018-10-07T21:52:21.949Z,30.40
2018-10-07T21:54:49.805Z,31.17
2018-10-07T21:57:17.623Z,27.37
2018-10-07T21:59:45.457Z,38.50
2018-10-07T22:02:13.308Z,30.63
2018-10-07T22:04:41.189Z,25.20
2018-10-07T22:07:10.061Z,24.50
2018-10-07T22:09:37.977Z,33.73
2018-10-07T22:12:06.143Z,26.60
2018-10-07T22:14:33.962Z,27.37
2018-10-07T22:17:02.034Z,32.23
2018-10-07T22:19:29.879Z,28.13
2018-10-07T22:21:57.748Z,32.30
2018-10-07T22:24:25.867Z,39.60
2018-10-07T22:26:53.726Z,33.10
2018-10-07T22:29:21.551Z,42.33
2018-10-07T22:31:49.418Z,39.63
2018-10-07T22:34:17.230Z,39.37
2018-10-07T22:36:45.055Z,45.93
2018-10-07T22:39:12.886Z,39.20
2018-10-07T22:41:40.756Z,39.20
2018-10-07T22:44:08.632Z,44.23
2018-10-07T22:46:36.522Z,36.23
2018-10-07T22:49:04.401Z,42.83
2018-10-07T22:51:32.236Z,34.80
2018-10-07T22:54:00.096Z,37.87
2018-10-07T22:56:27.978Z,41.83
2018-10-07T22:58:55.848Z,40.30
2018-10-07T23:01:23.715Z,42.83
2018-10-07T23:03:51.556Z,46.67
2018-10-07T23:06:19.412Z,50.97
2018-10-07T23:08:47.235Z,47.73
2018-10-07T23:11:15.055Z,49.47
2018-10-07T23:13:43.280Z,51.70
2018-10-07T23:16:11.134Z,45.87
2018-10-07T23:18:38.993Z,45.50
2018-10-07T23:21:06.877Z,47.17
2018-10-07T23:23:34.703Z,49.10
2018-10-07T23:26:02.572Z,48.20
2018-10-07T23:28:30.420Z,49.60
2018-10-07T23:30:58.264Z,48.63
2018-10-07T23:33:26.127Z,49.13
2018-10-07T23:35:54.619Z,50.17
2018-10-07T23:38:22.477Z,48.40
2018-10-07T23:40:51.914Z,48.40
2018-10-07T23:43:19.736Z,51.43
2018-10-07T23:45:47.615Z,52.27
2018-10-07T23:48:15.460Z,58.43
2018-10-07T23:50:43.640Z,52.90
2018-10-07T23:53:11.555Z,51.10
2018-10-07T23:55:39.399Z,58.80
2018-10-07T23:58:07.254Z,54.63
